createdAt,value
2023-05-09T00:00:44.542Z,99.0760
2023-05-09T00:01:45.588Z,99.0927
2023-05-09T00:02:46.522Z,99.1016
2023-05-09T00:03:47.561Z,99.1131
2023-05-09T00:04:48.718Z,99.1365
2023-05-09T00:05:49.671Z,99.1350
2023-05-09T00:06:50.720Z,99.0153
2023-05-09T00:07:51.617Z,98.9872
2023-05-09T00:08:52.781Z,99.0198
2023-05-09T00:09:53.739Z,99.0590
2023-05-09T00:10:54.791Z,99.0634
2023-05-09T00:11:55.733Z,99.0707
2023-05-09T00:12:56.852Z,99.1150
2023-05-09T00:13:57.811Z,99.2116
2023-05-09T00:14:58.931Z,99.2536
2023-05-09T00:15:59.941Z,99.2397
2023-05-09T00:17:00.962Z,99.2235
2023-05-09T00:18:01.968Z,99.2314
2023-05-09T00:19:02.992Z,99.1754
2023-05-09T00:20:04.053Z,99.0825
2023-05-09T00:21:05.113Z,99.1164
2023-05-09T00:22:06.065Z,99.1138
2023-05-09T00:23:07.106Z,99.1005
2023-05-09T00:24:08.167Z,99.1233
2023-05-09T00:25:09.216Z,99.1831
2023-05-09T00:26:10.227Z,99.1446
2023-05-09T00:27:11.105Z,99.2057
2023-05-09T00:28:12.120Z,99.2341
2023-05-09T00:29:13.165Z,99.2457
2023-05-09T00:30:14.195Z,99.3102
2023-05-09T00:31:15.260Z,99.3097
2023-05-09T00:32:16.435Z,99.2684
2023-05-09T00:33:17.295Z,99.3685
2023-05-09T00:34:18.291Z,99.2660
2023-05-09T00:35:19.374Z,99.4038
2023-05-09T00:36:20.371Z,99.5144
2023-05-09T00:37:21.400Z,99.4781
2023-05-09T00:38:22.418Z,99.5091
2023-05-09T00:39:23.462Z,99.5103
2023-05-09T00:40:24.503Z,99.4637
2023-05-09T00:41:25.549Z,99.4339
2023-05-09T00:42:26.524Z,99.4460
2023-05-09T00:43:27.579Z,99.4680
2023-05-09T00:44:28.593Z,99.4911
2023-05-09T00:45:29.665Z,99.4664
2023-05-09T00:46:30.804Z,99.5089
2023-05-09T00:47:31.772Z,99.4906
2023-05-09T00:48:32.710Z,99.5608
2023-05-09T00:49:33.749Z,99.6411
2023-05-09T00:50:34.779Z,99.6776
2023-05-09T00:51:35.814Z,99.6779
2023-05-09T00:52:36.831Z,99.6907
2023-05-09T00:53:37.875Z,99.6209
2023-05-09T00:54:38.890Z,99.6408
2023-05-09T00:55:40.007Z,99.7152
2023-05-09T00:56:41.011Z,99.7609
2023-05-09T00:57:41.996Z,99.8168
2023-05-09T00:58:43.049Z,99.8239
2023-05-09T00:59:44.078Z,99.8471
2023-05-09T01:00:45.135Z,99.8235
2023-05-09T01:01:46.224Z,99.8108
2023-05-09T01:02:47.273Z,99.7898
2023-05-09T01:03:48.272Z,99.7547
2023-05-09T01:04:49.226Z,99.8002
2023-05-09T01:05:50.258Z,99.8677
2023-05-09T01:06:51.326Z,99.8892
2023-05-09T01:07:52.313Z,99.8685
2023-05-09T01:08:53.355Z,99.8008
2023-05-09T01:09:54.353Z,99.7697
2023-05-09T01:10:55.436Z,99.8627
2023-05-09T01:11:56.454Z,99.9123
2023-05-09T01:12:57.534Z,99.9487
2023-05-09T01:13:58.474Z,99.9908
2023-05-09T01:14:59.533Z,100.0000
2023-05-09T01:16:00.562Z,100.0000
2023-05-09T01:17:01.613Z,100.0000
2023-05-09T01:18:02.778Z,100.0000
2023-05-09T01:19:03.691Z,100.0000
2023-05-09T01:20:04.718Z,99.9777
2023-05-09T01:21:05.772Z,99.9859
2023-05-09T01:22:06.854Z,100.0000
2023-05-09T01:23:07.868Z,100.0000
2023-05-09T01:24:08.873Z,100.0000
2023-05-09T01:25:09.889Z,100.0000
2023-05-09T01:26:10.917Z,99.9992
2023-05-09T01:27:11.995Z,99.9883
2023-05-09T01:28:12.994Z,100.0000
2023-05-09T01:29:14.090Z,100.0000
2023-05-09T01:30:15.042Z,100.0000
2023-05-09T01:31:16.224Z,100.0000
2023-05-09T01:32:17.209Z,100.0000
2023-05-09T01:33:18.372Z,100.0000
2023-05-09T01:34:19.300Z,100.0000
2023-05-09T01:35:20.312Z,100.0000
2023-05-09T01:36:21.293Z,100.0000
2023-05-09T01:37:22.370Z,100.0000
2023-05-09T01:38:23.441Z,100.0000
2023-05-09T01:39:24.528Z,100.0000
2023-05-09T01:40:25.416Z,100.0000
2023-05-09T01:41:26.477Z,100.0000
2023-05-09T01:42:27.628Z,100.0000
2023-05-09T01:43:28.618Z,100.0000
2023-05-09T01:44:29.542Z,100.0000
2023-05-09T01:45:30.595Z,100.0000
2023-05-09T01:46:31.744Z,100.0000
2023-05-09T01:47:32.757Z,100.0000
2023-05-09T01:48:33.794Z,100.0000
2023-05-09T01:49:34.735Z,100.0000
2023-05-09T01:50:35.752Z,100.0000
2023-05-09T01:51:36.804Z,100.0000
2023-05-09T01:52:37.853Z,100.0000
2023-05-09T01:53:38.933Z,100.0000
2023-05-09T01:54:39.949Z,100.0000
2023-05-09T01:55:40.951Z,100.0000
2023-05-09T01:56:41.935Z,100.0000
2023-05-09T01:57:43.040Z,100.0000
2023-05-09T01:58:44.072Z,100.0000
2023-05-09T01:59:45.128Z,100.0000
2023-05-09T02:00:46.119Z,100.0000
2023-05-09T02:01:47.121Z,100.0000
2023-05-09T02:02:48.206Z,100.0000
2023-05-09T02:03:49.282Z,100.0000
2023-05-09T02:04:50.357Z,100.0000
2023-05-09T02:05:51.226Z,100.0000
2023-05-09T02:06:52.267Z,100.0000
2023-05-09T02:07:53.308Z,100.0000
2023-05-09T02:08:54.352Z,100.0000
2023-05-09T02:09:55.387Z,100.0000
2023-05-09T02:10:56.386Z,100.0000
2023-05-09T02:11:57.385Z,100.0000
2023-05-09T02:12:58.441Z,100.0000
2023-05-09T02:13:59.492Z,100.0000
2023-05-09T02:15:00.566Z,100.0000
2023-05-09T02:16:01.496Z,100.0000
2023-05-09T02:17:02.646Z,100.0000
2023-05-09T02:18:03.603Z,100.0000
2023-05-09T02:19:04.727Z,100.0000
2023-05-09T02:20:05.689Z,100.0000
2023-05-09T02:21:06.687Z,100.0000
2023-05-09T02:22:07.690Z,100.0000
2023-05-09T02:23:08.730Z,100.0000
2023-05-09T02:24:09.831Z,100.0000
2023-05-09T02:25:10.829Z,100.0000
2023-05-09T02:26:11.836Z,100.0000
2023-05-09T02:27:12.931Z,100.0000
2023-05-09T02:28:13.896Z,100.0000
2023-05-09T02:29:14.960Z,100.0000
2023-05-09T02:30:16.070Z,100.0000
2023-05-09T02:31:16.971Z,100.0000
2023-05-09T02:32:18.031Z,100.0000
2023-05-09T02:33:19.024Z,100.0000
2023-05-09T02:34:20.182Z,100.0000
2023-05-09T02:35:21.130Z,100.0000
2023-05-09T02:36:22.232Z,100.0000
2023-05-09T02:37:23.131Z,100.0000
2023-05-09T02:38:24.194Z,100.0000
2023-05-09T02:39:25.269Z,100.0000
2023-05-09T02:40:26.339Z,100.0000
2023-05-09T02:41:27.291Z,100.0000
2023-05-09T02:42:28.309Z,100.0000
2023-05-09T02:43:29.329Z,100.0000
2023-05-09T02:44:30.428Z,100.0000
2023-05-09T02:45:31.452Z,100.0000
2023-05-09T02:46:32.644Z,100.0000
2023-05-09T02:47:33.616Z,100.0000
2023-05-09T02:48:34.490Z,100.0000
2023-05-09T02:49:35.666Z,100.0000
2023-05-09T02:50:36.672Z,100.0000
2023-05-09T02:51:37.584Z,100.0000
2023-05-09T02:52:38.669Z,100.0000
2023-05-09T02:53:39.666Z,100.0000
2023-05-09T02:54:40.844Z,100.0000
2023-05-09T02:55:41.823Z,100.0000
2023-05-09T02:56:42.751Z,100.0000
2023-05-09T02:57:43.771Z,100.0000
2023-05-09T02:58:44.812Z,100.0000
2023-05-09T02:59:45.904Z,100.0000
2023-05-09T03:00:46.959Z,100.0000
2023-05-09T03:01:47.933Z,100.0000
2023-05-09T03:02:49.020Z,100.0000
2023-05-09T03:03:49.989Z,100.0000
2023-05-09T03:04:51.157Z,100.0000
2023-05-09T03:05:52.073Z,100.0000
2023-05-09T03:06:53.066Z,100.0000
2023-05-09T03:07:54.104Z,100.0000
2023-05-09T03:08:55.092Z,100.0000
2023-05-09T03:09:56.229Z,100.0000
2023-05-09T03:10:57.264Z,100.0000
2023-05-09T03:11:58.217Z,100.0000
2023-05-09T03:12:59.250Z,100.0000
2023-05-09T03:14:00.283Z,100.0000
2023-05-09T03:15:01.369Z,100.0000
2023-05-09T03:16:02.437Z,100.0000
2023-05-09T03:17:03.344Z,100.0000
2023-05-09T03:18:04.510Z,100.0000
2023-05-09T03:19:05.415Z,100.0000
2023-05-09T03:20:06.549Z,100.0000
2023-05-09T03:21:07.616Z,100.0000
2023-05-09T03:22:08.493Z,100.0000
2023-05-09T03:23:09.507Z,100.0000
2023-05-09T03:24:10.634Z,100.0000
2023-05-09T03:25:11.764Z,100.0000
2023-05-09T03:26:12.665Z,100.0000
2023-05-09T03:27:13.618Z,100.0000
2023-05-09T03:28:14.666Z,100.0000
2023-05-09T03:29:15.669Z,100.0000
2023-05-09T03:30:16.806Z,100.0000
2023-05-09T03:31:17.797Z,100.0000
2023-05-09T03:32:18.789Z,100.0000
2023-05-09T03:33:19.772Z,100.0000
2023-05-09T03:34:20.836Z,100.0000
2023-05-09T03:35:22.034Z,100.0000
2023-05-09T03:36:22.934Z,100.0000
2023-05-09T03:37:25.532Z,100.0000
2023-05-09T03:38:24.975Z,100.0000
2023-05-09T03:39:26.067Z,100.0000
2023-05-09T03:40:27.106Z,100.0000
2023-05-09T03:41:28.147Z,100.0000
2023-05-09T03:42:29.186Z,100.0000
2023-05-09T03:43:30.096Z,100.0000
2023-05-09T03:44:31.153Z,100.0000
2023-05-09T03:45:32.241Z,100.0000
2023-05-09T03:46:33.295Z,100.0000
2023-05-09T03:47:34.313Z,100.0000
2023-05-09T03:48:35.266Z,100.0000
2023-05-09T03:49:36.379Z,100.0000
2023-05-09T03:50:37.480Z,100.0000
2023-05-09T03:51:39.868Z,100.0000
2023-05-09T03:52:39.402Z,100.0000
2023-05-09T03:53:40.431Z,100.0000
2023-05-09T03:54:41.433Z,100.0000
2023-05-09T03:55:42.546Z,100.0000
2023-05-09T03:56:43.601Z,100.0000
2023-05-09T03:57:44.519Z,100.0000
2023-05-09T03:58:45.548Z,100.0000
2023-05-09T03:59:46.630Z,100.0000
2023-05-09T04:00:47.635Z,100.0000
2023-05-09T04:01:48.713Z,100.0000
2023-05-09T04:02:49.727Z,100.0000
2023-05-09T04:03:50.775Z,100.0000
2023-05-09T04:04:51.732Z,100.0000
2023-05-09T04:05:52.841Z,100.0000
2023-05-09T04:06:53.882Z,100.0000
2023-05-09T04:07:54.777Z,100.0000
2023-05-09T04:08:55.898Z,100.0000
2023-05-09T04:09:56.921Z,100.0000
2023-05-09T04:10:57.937Z,100.0000
2023-05-09T04:11:58.933Z,100.0000
2023-05-09T04:12:59.974Z,100.0000
2023-05-09T04:14:00.958Z,100.0000
2023-05-09T04:15:01.987Z,100.0000
2023-05-09T04:16:03.050Z,100.0000
2023-05-09T04:17:04.186Z,100.0000
2023-05-09T04:18:05.163Z,100.0000
2023-05-09T04:19:06.100Z,100.0000
2023-05-09T04:20:07.147Z,100.0000
2023-05-09T04:21:08.298Z,100.0000
2023-05-09T04:22:09.282Z,100.0000
2023-05-09T04:23:10.224Z,100.0000
2023-05-09T04:24:11.257Z,100.0000
2023-05-09T04:25:12.379Z,100.0000
2023-05-09T04:26:13.361Z,100.0000
2023-05-09T04:27:14.390Z,100.0000
2023-05-09T04:28:15.370Z,100.0000
2023-05-09T04:29:16.344Z,100.0000
2023-05-09T04:30:17.490Z,100.0000
2023-05-09T04:31:18.572Z,100.0000
2023-05-09T04:32:19.580Z,100.0000
2023-05-09T04:33:20.509Z,100.0000
2023-05-09T04:34:21.561Z,100.0000
2023-05-09T04:35:22.907Z,100.0000
2023-05-09T04:36:23.693Z,100.0000
2023-05-09T04:37:24.638Z,100.0000
2023-05-09T04:38:25.651Z,100.0000
2023-05-09T04:39:26.656Z,100.0000
2023-05-09T04:40:27.716Z,100.0000
2023-05-09T04:41:28.802Z,100.0000
2023-05-09T04:42:29.830Z,100.0000
2023-05-09T04:43:30.831Z,100.0000
2023-05-09T04:44:31.829Z,100.0000
2023-05-09T04:45:32.820Z,100.0000
2023-05-09T04:46:34.081Z,100.0000
2023-05-09T04:47:35.053Z,100.0000
2023-05-09T04:48:35.911Z,100.0000
2023-05-09T04:49:37.008Z,99.9883
2023-05-09T04:50:37.967Z,99.9177
2023-05-09T04:51:39.112Z,99.7230
2023-05-09T04:52:40.145Z,99.5097
2023-05-09T04:53:41.058Z,99.6414
2023-05-09T04:54:42.086Z,99.6812
2023-05-09T04:55:43.142Z,99.6664
2023-05-09T04:56:44.202Z,99.7184
2023-05-09T04:57:45.221Z,99.6672
2023-05-09T04:58:46.185Z,99.5938
2023-05-09T04:59:47.268Z,99.6267
2023-05-09T05:00:48.222Z,99.6231
2023-05-09T05:01:49.381Z,99.6573
2023-05-09T05:02:50.392Z,99.6405
2023-05-09T05:03:51.422Z,99.6310
2023-05-09T05:04:56.017Z,99.6293
2023-05-09T05:05:53.498Z,99.5184
2023-05-09T05:06:54.546Z,99.5164
2023-05-09T05:07:55.533Z,99.5215
2023-05-09T05:08:56.478Z,99.4182
2023-05-09T05:09:57.520Z,99.0847
2023-05-09T05:10:58.633Z,98.5364
2023-05-09T05:12:02.844Z,98.1607
2023-05-09T05:13:00.754Z,97.9806
2023-05-09T05:14:01.613Z,98.6276
2023-05-09T05:15:02.753Z,98.5453
2023-05-09T05:16:03.757Z,98.4719
2023-05-09T05:17:04.788Z,98.6941
2023-05-09T05:18:05.861Z,98.6948
2023-05-09T05:19:06.958Z,98.6842
2023-05-09T05:20:07.857Z,98.8798
2023-05-09T05:21:08.917Z,98.8234
2023-05-09T05:22:10.067Z,98.7611
2023-05-09T05:23:11.021Z,98.7610
2023-05-09T05:24:11.973Z,98.7478
2023-05-09T05:25:13.188Z,98.7586
2023-05-09T05:26:14.096Z,98.6789
2023-05-09T05:27:15.163Z,98.7201
2023-05-09T05:28:16.197Z,98.7589
2023-05-09T05:29:17.136Z,98.6559
2023-05-09T05:30:18.145Z,98.3877
2023-05-09T05:31:19.235Z,98.4315
2023-05-09T05:32:20.219Z,98.4764
2023-05-09T05:33:21.273Z,98.5570
2023-05-09T05:34:22.272Z,98.3861
2023-05-09T05:35:23.373Z,98.2729
2023-05-09T05:36:24.384Z,98.2680
2023-05-09T05:37:25.440Z,98.2533
2023-05-09T05:38:26.434Z,98.2850
2023-05-09T05:39:27.420Z,98.3112
2023-05-09T05:40:28.453Z,98.2362
2023-05-09T05:41:29.459Z,97.3637
2023-05-09T05:42:30.592Z,96.8207
2023-05-09T05:43:31.569Z,96.5569
2023-05-09T05:44:32.551Z,97.2855
2023-05-09T05:45:33.578Z,97.0772
2023-05-09T05:46:34.607Z,96.9061
2023-05-09T05:47:35.707Z,97.4131
2023-05-09T05:48:36.674Z,97.5826
2023-05-09T05:49:37.651Z,97.1994
2023-05-09T05:50:38.771Z,96.7637
2023-05-09T05:51:39.737Z,96.3626
2023-05-09T05:52:40.859Z,96.6010
2023-05-09T05:53:41.851Z,96.9968
2023-05-09T05:54:42.832Z,96.9961
2023-05-09T05:55:43.857Z,97.0335
2023-05-09T05:56:44.951Z,97.2650
2023-05-09T05:57:45.992Z,97.3826
2023-05-09T05:58:46.992Z,97.4059
2023-05-09T05:59:47.950Z,97.4476
2023-05-09T06:00:48.986Z,97.0664
2023-05-09T06:01:50.005Z,97.1494
2023-05-09T06:02:51.168Z,96.9484
2023-05-09T06:03:52.162Z,96.7481
2023-05-09T06:04:54.654Z,96.7726
2023-05-09T06:05:54.109Z,96.7922
2023-05-09T06:06:55.130Z,97.0367
2023-05-09T06:07:56.272Z,96.3801
2023-05-09T06:08:57.233Z,95.6033
2023-05-09T06:09:58.247Z,95.6304
2023-05-09T06:10:59.252Z,95.5283
2023-05-09T06:12:00.356Z,95.9769
2023-05-09T06:13:01.435Z,95.9426
2023-05-09T06:14:02.452Z,95.9862
2023-05-09T06:15:03.338Z,95.9490
2023-05-09T06:16:18.653Z,95.7525
2023-05-09T06:17:05.465Z,95.2940
2023-05-09T06:18:06.584Z,95.1054
2023-05-09T06:19:07.510Z,95.3278
2023-05-09T06:20:08.495Z,95.3741
2023-05-09T06:21:09.493Z,94.8278
2023-05-09T06:22:10.548Z,94.7251
2023-05-09T06:23:11.692Z,94.8173
2023-05-09T06:24:23.538Z,95.1096
2023-05-09T06:25:13.862Z,95.3433
2023-05-09T06:26:14.813Z,95.1831
2023-05-09T06:27:15.709Z,95.2060
2023-05-09T06:28:16.802Z,95.0136
2023-05-09T06:29:17.855Z,95.3447
2023-05-09T06:30:26.282Z,94.6498
2023-05-09T06:31:19.871Z,94.9021
2023-05-09T06:32:20.837Z,95.4872
2023-05-09T06:33:21.959Z,95.2809
2023-05-09T06:34:22.958Z,94.9682
2023-05-09T06:35:23.966Z,94.6004
2023-05-09T06:36:25.000Z,94.1618
2023-05-09T06:37:26.016Z,93.9034
2023-05-09T06:38:27.126Z,93.6976
2023-05-09T06:39:28.092Z,92.8869
2023-05-09T06:40:29.154Z,92.6177
2023-05-09T06:41:30.140Z,92.1904
2023-05-09T06:42:31.140Z,92.0805
2023-05-09T06:43:32.213Z,91.7620
2023-05-09T06:44:33.266Z,91.9426
2023-05-09T06:45:34.258Z,90.9472
2023-05-09T06:46:35.367Z,90.8054
2023-05-09T06:47:36.316Z,90.4603
2023-05-09T06:48:37.323Z,90.5885
2023-05-09T06:49:38.446Z,89.7782
2023-05-09T06:50:39.429Z,90.0194
2023-05-09T06:51:40.376Z,90.4837
2023-05-09T06:52:41.414Z,90.3677
2023-05-09T06:53:42.495Z,89.9618
2023-05-09T06:54:43.517Z,89.4048
2023-05-09T06:55:44.515Z,88.9659
2023-05-09T06:56:45.533Z,89.4196
2023-05-09T06:57:46.653Z,88.8481
2023-05-09T06:58:47.699Z,88.9670
2023-05-09T06:59:48.679Z,88.3737
2023-05-09T07:00:49.611Z,88.5840
2023-05-09T07:01:50.668Z,88.3974
2023-05-09T07:02:51.715Z,88.6465
2023-05-09T07:03:52.812Z,88.5792
2023-05-09T07:04:53.868Z,88.0157
2023-05-09T07:05:54.764Z,86.5944
2023-05-09T07:06:55.804Z,85.8618
2023-05-09T07:07:56.837Z,86.3750
2023-05-09T07:08:57.982Z,87.3699
2023-05-09T07:10:10.316Z,86.5982
2023-05-09T07:10:59.923Z,87.2174
2023-05-09T07:12:01.008Z,87.4175
2023-05-09T07:13:02.007Z,86.5629
2023-05-09T07:14:03.077Z,84.6031
2023-05-09T07:15:04.117Z,82.5268
2023-05-09T07:16:05.127Z,83.1046
2023-05-09T07:17:21.982Z,83.1458
2023-05-09T07:18:07.140Z,84.0878
2023-05-09T07:19:08.228Z,82.8124
2023-05-09T07:20:09.210Z,81.7592
2023-05-09T07:21:10.292Z,82.1481
2023-05-09T07:22:11.242Z,81.6199
2023-05-09T07:23:12.262Z,80.4270
2023-05-09T07:24:13.429Z,80.4080
2023-05-09T07:25:14.600Z,80.9998
2023-05-09T07:26:15.373Z,80.7020
2023-05-09T07:27:16.376Z,80.0667
2023-05-09T07:28:17.408Z,78.8321
2023-05-09T07:29:18.498Z,80.0433
2023-05-09T07:30:19.503Z,79.9325
2023-05-09T07:31:20.552Z,79.9811
2023-05-09T07:32:21.540Z,79.8901
2023-05-09T07:33:22.585Z,78.9594
2023-05-09T07:34:23.679Z,78.9725
2023-05-09T07:35:24.642Z,78.4154
2023-05-09T07:36:25.679Z,78.4273
2023-05-09T07:37:26.743Z,78.4783
2023-05-09T07:38:27.686Z,78.1730
2023-05-09T07:39:28.874Z,77.8430
2023-05-09T07:40:29.896Z,77.7501
2023-05-09T07:41:30.789Z,76.5837
2023-05-09T07:42:31.803Z,74.0610
2023-05-09T07:43:32.844Z,73.5588
2023-05-09T07:44:33.895Z,74.5718
2023-05-09T07:45:35.062Z,75.1562
2023-05-09T07:46:35.987Z,75.2243
2023-05-09T07:47:37.042Z,76.7012
2023-05-09T07:48:38.015Z,75.1008
2023-05-09T07:49:39.037Z,77.5032
2023-05-09T07:50:40.114Z,76.3699
2023-05-09T07:51:41.035Z,75.3506
2023-05-09T07:52:42.118Z,75.7110
2023-05-09T07:53:43.122Z,76.0586
2023-05-09T07:54:44.335Z,74.9403
2023-05-09T07:55:45.209Z,74.8962
2023-05-09T07:56:46.159Z,75.3886
2023-05-09T07:57:47.241Z,77.2141
2023-05-09T07:58:48.211Z,75.9343
2023-05-09T07:59:49.339Z,74.3019
2023-05-09T08:00:50.368Z,75.2837
2023-05-09T08:01:51.404Z,74.3155
2023-05-09T08:02:52.449Z,73.3695
2023-05-09T08:03:53.527Z,74.6299
2023-05-09T08:04:54.509Z,74.5258
2023-05-09T08:05:55.511Z,72.5498
2023-05-09T08:06:56.492Z,72.1511
2023-05-09T08:07:57.513Z,72.2172
2023-05-09T08:08:58.593Z,72.1841
2023-05-09T08:09:59.682Z,72.4707
2023-05-09T08:11:00.705Z,71.9145
2023-05-09T08:12:01.648Z,72.9969
2023-05-09T08:13:02.756Z,71.9650
2023-05-09T08:14:03.734Z,71.7277
2023-05-09T08:15:04.762Z,72.0202
2023-05-09T08:16:05.888Z,71.8989
2023-05-09T08:17:06.856Z,71.9540
2023-05-09T08:18:07.874Z,71.0845
2023-05-09T08:19:08.813Z,71.9529
2023-05-09T08:20:09.909Z,70.9793
2023-05-09T08:21:10.961Z,70.8658
2023-05-09T08:22:11.999Z,71.1190
2023-05-09T08:23:12.980Z,70.9128
2023-05-09T08:24:13.961Z,70.2054
2023-05-09T08:25:15.318Z,69.6890
2023-05-09T08:26:16.119Z,70.7514
2023-05-09T08:27:17.074Z,71.3228
2023-05-09T08:28:18.217Z,70.8794
2023-05-09T08:29:19.413Z,72.3663
2023-05-09T08:30:20.191Z,71.9498
2023-05-09T08:31:21.291Z,73.8120
2023-05-09T08:32:22.207Z,72.9686
2023-05-09T08:33:23.243Z,75.0467
2023-05-09T08:34:24.343Z,75.9579
2023-05-09T08:35:25.420Z,75.4026
2023-05-09T08:36:26.362Z,75.0825
2023-05-09T08:37:27.404Z,74.9908
2023-05-09T08:38:28.453Z,75.1909
2023-05-09T08:39:29.441Z,75.5041
2023-05-09T08:40:30.533Z,76.3679
2023-05-09T08:41:31.586Z,76.5013
2023-05-09T08:42:32.534Z,77.2244
2023-05-09T08:43:33.567Z,77.3678
2023-05-09T08:44:34.554Z,76.9471
2023-05-09T08:45:35.653Z,76.7708
2023-05-09T08:46:36.873Z,74.6130
2023-05-09T08:47:37.703Z,74.3621
2023-05-09T08:48:38.720Z,74.5107
2023-05-09T08:49:39.719Z,73.7923
2023-05-09T08:50:40.803Z,74.8056
2023-05-09T08:51:41.837Z,75.1247
2023-05-09T08:52:42.794Z,74.2740
2023-05-09T08:53:43.815Z,75.3429
2023-05-09T08:54:44.858Z,75.5742
2023-05-09T08:55:45.988Z,76.0980
2023-05-09T08:56:46.989Z,76.9502
2023-05-09T08:57:47.968Z,77.4355
2023-05-09T08:58:49.065Z,77.1709
2023-05-09T08:59:50.066Z,76.2716
2023-05-09T09:00:51.163Z,74.9281
2023-05-09T09:01:52.157Z,75.1547
2023-05-09T09:02:53.311Z,75.0600
2023-05-09T09:03:54.187Z,76.4073
2023-05-09T09:04:55.108Z,77.4190
2023-05-09T09:05:56.252Z,77.9268
2023-05-09T09:06:57.205Z,77.5289
2023-05-09T09:07:58.216Z,76.4304
2023-05-09T09:08:59.263Z,76.2430
2023-05-09T09:10:00.221Z,76.6051
2023-05-09T09:11:01.345Z,76.1003
2023-05-09T09:12:02.299Z,76.2127
2023-05-09T09:13:03.402Z,76.1675
2023-05-09T09:14:04.374Z,75.2637
2023-05-09T09:15:05.391Z,74.8807
2023-05-09T09:16:06.446Z,74.5855
2023-05-09T09:17:07.478Z,74.6802
2023-05-09T09:18:08.594Z,74.7234
2023-05-09T09:19:09.566Z,75.1262
2023-05-09T09:20:10.573Z,75.6615
2023-05-09T09:21:11.612Z,74.6323
2023-05-09T09:22:12.674Z,73.7689
2023-05-09T09:23:13.687Z,74.9380
2023-05-09T09:24:14.685Z,74.5511
2023-05-09T09:25:15.762Z,74.0063
2023-05-09T09:26:16.810Z,73.9897
2023-05-09T09:27:17.837Z,73.4601
2023-05-09T09:28:18.879Z,73.2851
2023-05-09T09:29:19.850Z,73.2210
2023-05-09T09:30:20.893Z,72.1767
2023-05-09T09:31:21.975Z,72.0232
2023-05-09T09:32:22.982Z,71.6878
2023-05-09T09:33:24.016Z,71.5859
2023-05-09T09:34:25.014Z,71.6394
2023-05-09T09:35:26.037Z,71.5052
2023-05-09T09:36:27.073Z,70.9280
2023-05-09T09:37:28.127Z,72.8587
2023-05-09T09:38:29.099Z,73.1060
2023-05-09T09:39:30.147Z,72.5716
2023-05-09T09:40:31.154Z,72.0192
2023-05-09T09:41:32.240Z,72.5656
2023-05-09T09:42:33.248Z,72.2970
2023-05-09T09:43:34.256Z,72.4383
2023-05-09T09:44:35.270Z,73.2366
2023-05-09T09:45:36.399Z,71.6514
2023-05-09T09:46:37.465Z,70.6057
2023-05-09T09:47:38.395Z,69.6362
2023-05-09T09:48:39.433Z,69.4456
2023-05-09T09:49:40.410Z,70.4194
2023-05-09T09:50:41.486Z,69.2869
2023-05-09T09:51:42.456Z,69.8949
2023-05-09T09:52:43.526Z,70.1653
2023-05-09T09:53:44.515Z,70.8731
2023-05-09T09:54:45.591Z,70.1667
2023-05-09T09:55:46.588Z,68.2061
2023-05-09T09:56:47.713Z,67.6483
2023-05-09T09:57:48.599Z,66.5018
2023-05-09T09:58:49.720Z,66.9527
2023-05-09T09:59:50.719Z,66.8389
2023-05-09T10:00:51.755Z,67.3363
2023-05-09T10:01:52.751Z,68.6764
2023-05-09T10:02:53.821Z,69.1382
2023-05-09T10:03:54.943Z,67.5638
2023-05-09T10:04:55.892Z,69.1031
2023-05-09T10:05:56.880Z,69.2770
2023-05-09T10:06:57.941Z,69.7276
2023-05-09T10:07:58.932Z,67.1547
2023-05-09T10:08:59.971Z,65.8117
2023-05-09T10:10:01.038Z,65.8637
2023-05-09T10:11:02.074Z,66.3597
2023-05-09T10:12:03.146Z,67.4184
2023-05-09T10:13:04.143Z,66.7281
2023-05-09T10:14:05.086Z,66.0714
2023-05-09T10:15:06.191Z,66.6216
2023-05-09T10:16:07.281Z,66.4796
2023-05-09T10:17:08.368Z,67.5787
2023-05-09T10:18:09.450Z,66.9420
2023-05-09T10:19:10.312Z,65.9666
2023-05-09T10:20:11.313Z,66.8702
2023-05-09T10:21:12.385Z,66.0456
2023-05-09T10:22:13.422Z,65.3133
2023-05-09T10:23:14.417Z,65.4555
2023-05-09T10:24:15.408Z,66.0453
2023-05-09T10:25:16.628Z,65.7306
2023-05-09T10:26:17.504Z,64.6686
2023-05-09T10:27:18.587Z,63.9549
2023-05-09T10:28:19.616Z,63.6255
2023-05-09T10:29:20.572Z,65.2860
2023-05-09T10:30:21.603Z,63.5557
2023-05-09T10:31:22.731Z,63.5872
2023-05-09T10:32:23.680Z,64.1438
2023-05-09T10:33:24.748Z,64.2341
2023-05-09T10:34:25.739Z,63.3796
2023-05-09T10:35:26.768Z,63.7285
2023-05-09T10:36:27.800Z,64.3449
2023-05-09T10:37:28.850Z,66.5806
2023-05-09T10:38:29.903Z,66.9335
2023-05-09T10:39:30.871Z,67.0587
2023-05-09T10:40:31.945Z,65.7274
2023-05-09T10:41:32.956Z,64.9183
2023-05-09T10:42:34.066Z,66.4636
2023-05-09T10:43:36.674Z,67.0564
2023-05-09T10:44:36.077Z,68.4472
2023-05-09T10:45:37.066Z,68.3326
2023-05-09T10:46:38.154Z,67.9340
2023-05-09T10:47:39.190Z,66.7770
2023-05-09T10:48:40.228Z,65.7713
2023-05-09T10:49:41.192Z,64.8599
2023-05-09T10:50:42.218Z,63.8558
2023-05-09T10:51:43.253Z,63.3955
2023-05-09T10:52:44.287Z,64.6971
2023-05-09T10:53:45.327Z,63.2501
2023-05-09T10:54:46.426Z,62.8404
2023-05-09T10:55:47.518Z,63.3218
2023-05-09T10:56:48.434Z,65.0679
2023-05-09T10:57:49.635Z,64.0651
2023-05-09T10:58:50.663Z,64.0689
2023-05-09T10:59:51.565Z,64.6836
2023-05-09T11:00:52.998Z,62.9634
2023-05-09T11:01:53.659Z,62.9781
2023-05-09T11:02:54.679Z,62.5755
2023-05-09T11:03:55.795Z,62.4571
2023-05-09T11:04:56.776Z,62.8720
2023-05-09T11:05:57.723Z,62.7006
2023-05-09T11:06:58.790Z,62.8890
2023-05-09T11:07:59.827Z,62.8768
2023-05-09T11:09:00.829Z,64.5596
2023-05-09T11:10:01.858Z,63.0266
2023-05-09T11:11:02.896Z,60.9503
2023-05-09T11:12:03.887Z,60.6248
2023-05-09T11:13:05.132Z,60.6558
2023-05-09T11:14:06.014Z,60.5471
2023-05-09T11:15:06.993Z,60.4085
2023-05-09T11:16:08.011Z,61.0093
2023-05-09T11:17:09.018Z,60.7993
2023-05-09T11:18:10.167Z,61.8211
2023-05-09T11:19:11.151Z,62.5952
2023-05-09T11:20:12.239Z,61.2370
2023-05-09T11:21:13.156Z,61.6238
2023-05-09T11:22:14.207Z,62.4632
2023-05-09T11:23:15.277Z,62.3914
2023-05-09T11:24:16.254Z,61.5567
2023-05-09T11:25:17.481Z,60.7776
2023-05-09T11:26:18.310Z,59.7897
2023-05-09T11:27:19.330Z,59.9548
2023-05-09T11:28:20.374Z,62.9414
2023-05-09T11:29:21.471Z,61.6633
2023-05-09T11:30:22.479Z,60.7845
2023-05-09T11:31:23.507Z,62.0475
2023-05-09T11:32:24.520Z,62.6621
2023-05-09T11:33:25.520Z,60.6487
2023-05-09T11:34:26.537Z,59.6663
2023-05-09T11:35:27.542Z,59.8741
2023-05-09T11:36:28.564Z,60.8459
2023-05-09T11:37:29.553Z,60.2451
2023-05-09T11:38:30.659Z,60.6329
2023-05-09T11:39:31.699Z,59.9634
2023-05-09T11:40:32.736Z,59.3675
2023-05-09T11:41:33.736Z,61.4476
2023-05-09T11:42:34.787Z,63.4492
2023-05-09T11:43:35.848Z,64.7021
2023-05-09T11:44:36.878Z,62.0354
2023-05-09T11:45:37.802Z,60.9029
2023-05-09T11:46:38.849Z,59.6989
2023-05-09T11:47:39.864Z,59.2231
2023-05-09T11:48:40.926Z,58.9841
2023-05-09T11:49:41.956Z,59.6258
2023-05-09T11:50:43.018Z,60.0094
2023-05-09T11:51:43.963Z,60.1000
2023-05-09T11:52:45.024Z,61.3802
2023-05-09T11:53:46.124Z,60.5538
2023-05-09T11:54:47.121Z,59.1598
2023-05-09T11:55:48.071Z,58.8486
2023-05-09T11:56:49.147Z,60.1905
2023-05-09T11:57:50.133Z,59.7697
2023-05-09T11:58:51.365Z,57.8055
2023-05-09T11:59:52.228Z,58.5849
2023-05-09T12:00:53.227Z,57.8231
2023-05-09T12:01:54.280Z,56.7868
2023-05-09T12:02:55.314Z,56.8865
2023-05-09T12:03:56.466Z,56.8237
2023-05-09T12:04:57.409Z,57.7602
2023-05-09T12:05:58.303Z,59.0206
2023-05-09T12:06:59.418Z,57.6922
2023-05-09T12:08:00.386Z,57.8189
2023-05-09T12:09:01.466Z,57.3730
2023-05-09T12:10:02.501Z,56.9639
2023-05-09T12:11:03.478Z,55.9054
2023-05-09T12:12:04.597Z,55.5971